Terminal Aerodrome Forecast
Issued by NWS Wilmington, NC

Home | Current Version | Previous Version | Text Only | Print | Product List | Glossary On
Versions: 1 2 3 4 5 6 7 8 9 10 11 12 13 14 15
006
FTUS42 KILM 272327
TAFFLO
TAF
KFLO 272327Z 2800/2824 00000KT P6SM SCT060
     FM281200 04006KT P6SM FEW250
     FM281700 09006KT P6SM FEW250
     FM282200 13006KT P6SM FEW070=

USA.gov is the U.S. government's official web portal to all federal, state and local government web resources and services.